sensor_id;sensor_type;location;lat;lon;timestamp;temperature;humidity
42097;DHT22;27754;45.414;11.084;2022-09-03T00:00:35;20.40;72.60
42097;DHT22;27754;45.414;11.084;2022-09-03T00:03:17;20.30;72.60
42097;DHT22;27754;45.414;11.084;2022-09-03T00:05:50;20.30;72.80
42097;DHT22;27754;45.414;11.084;2022-09-03T00:08:34;20.30;72.70
42097;DHT22;27754;45.414;11.084;2022-09-03T00:11:21;20.30;72.60
42097;DHT22;27754;45.414;11.084;2022-09-03T00:13:56;20.30;72.50
42097;DHT22;27754;45.414;11.084;2022-09-03T00:16:30;20.30;72.60
42097;DHT22;27754;45.414;11.084;2022-09-03T00:19:02;20.30;72.30
42097;DHT22;27754;45.414;11.084;2022-09-03T00:21:46;20.30;72.00
42097;DHT22;27754;45.414;11.084;2022-09-03T00:24:18;20.30;72.20
42097;DHT22;27754;45.414;11.084;2022-09-03T00:26:49;20.30;72.00
42097;DHT22;27754;45.414;11.084;2022-09-03T00:29:24;20.30;72.10
42097;DHT22;27754;45.414;11.084;2022-09-03T00:31:56;20.20;72.50
42097;DHT22;27754;45.414;11.084;2022-09-03T00:34:35;20.20;72.60
42097;DHT22;27754;45.414;11.084;2022-09-03T00:37:06;20.20;72.70
42097;DHT22;27754;45.414;11.084;2022-09-03T00:39:39;20.10;73.80
42097;DHT22;27754;45.414;11.084;2022-09-03T00:47:35;20.10;73.50
42097;DHT22;27754;45.414;11.084;2022-09-03T00:50:25;20.10;73.30
42097;DHT22;27754;45.414;11.084;2022-09-03T00:56:25;20.00;73.80
42097;DHT22;27754;45.414;11.084;2022-09-03T00:59:38;20.10;73.20
42097;DHT22;27754;45.414;11.084;2022-09-03T01:13:38;20.10;73.10
42097;DHT22;27754;45.414;11.084;2022-09-03T01:27:45;20.30;72.70
42097;DHT22;27754;45.414;11.084;2022-09-03T01:30:15;20.30;72.80
42097;DHT22;27754;45.414;11.084;2022-09-03T01:35:37;20.30;72.90
42097;DHT22;27754;45.414;11.084;2022-09-03T01:41:17;20.40;73.30
42097;DHT22;27754;45.414;11.084;2022-09-03T01:44:35;20.30;73.20
42097;DHT22;27754;45.414;11.084;2022-09-03T01:50:19;20.40;73.50
42097;DHT22;27754;45.414;11.084;2022-09-03T01:52:54;20.30;73.40
42097;DHT22;27754;45.414;11.084;2022-09-03T02:00:42;20.20;74.40
42097;DHT22;27754;45.414;11.084;2022-09-03T02:03:12;20.10;74.50
42097;DHT22;27754;45.414;11.084;2022-09-03T02:05:39;20.10;74.40
42097;DHT22;27754;45.414;11.084;2022-09-03T02:08:09;20.10;74.30
42097;DHT22;27754;45.414;11.084;2022-09-03T02:10:40;20.10;74.70
42097;DHT22;27754;45.414;11.084;2022-09-03T02:13:21;20.00;75.00
42097;DHT22;27754;45.414;11.084;2022-09-03T02:15:51;19.90;75.00
42097;DHT22;27754;45.414;11.084;2022-09-03T02:18:24;19.80;75.40
42097;DHT22;27754;45.414;11.084;2022-09-03T02:20:53;19.80;75.60
42097;DHT22;27754;45.414;11.084;2022-09-03T02:23:21;19.80;75.70
42097;DHT22;27754;45.414;11.084;2022-09-03T02:25:56;19.60;75.50
42097;DHT22;27754;45.414;11.084;2022-09-03T02:28:25;19.60;75.80
42097;DHT22;27754;45.414;11.084;2022-09-03T02:30:54;19.50;76.00
42097;DHT22;27754;45.414;11.084;2022-09-03T02:33:23;19.50;76.20
42097;DHT22;27754;45.414;11.084;2022-09-03T02:35:50;19.50;76.40
42097;DHT22;27754;45.414;11.084;2022-09-03T02:38:23;19.50;76.80
42097;DHT22;27754;45.414;11.084;2022-09-03T02:40:54;19.50;76.80
42097;DHT22;27754;45.414;11.084;2022-09-03T02:43:30;19.40;77.00
42097;DHT22;27754;45.414;11.084;2022-09-03T02:48:47;19.40;77.30
42097;DHT22;27754;45.414;11.084;2022-09-03T02:51:14;19.40;77.20
42097;DHT22;27754;45.414;11.084;2022-09-03T02:53:41;19.40;77.20
42097;DHT22;27754;45.414;11.084;2022-09-03T02:56:09;19.30;77.30
42097;DHT22;27754;45.414;11.084;2022-09-03T02:58:36;19.30;77.70
42097;DHT22;27754;45.414;11.084;2022-09-03T03:01:03;19.30;77.70
42097;DHT22;27754;45.414;11.084;2022-09-03T03:03:32;19.30;77.60
42097;DHT22;27754;45.414;11.084;2022-09-03T03:06:01;19.30;77.60
42097;DHT22;27754;45.414;11.084;2022-09-03T03:08:28;19.30;77.00
42097;DHT22;27754;45.414;11.084;2022-09-03T03:10:58;19.30;77.20
42097;DHT22;27754;45.414;11.084;2022-09-03T03:13:27;19.40;77.10
42097;DHT22;27754;45.414;11.084;2022-09-03T03:15:59;19.40;77.20
42097;DHT22;27754;45.414;11.084;2022-09-03T03:18:28;19.50;77.50
42097;DHT22;27754;45.414;11.084;2022-09-03T03:20:55;19.40;77.90
42097;DHT22;27754;45.414;11.084;2022-09-03T03:23:22;19.40;78.00
42097;DHT22;27754;45.414;11.084;2022-09-03T03:25:49;19.40;78.20
42097;DHT22;27754;45.414;11.084;2022-09-03T03:28:16;19.40;78.20
42097;DHT22;27754;45.414;11.084;2022-09-03T03:30:44;19.50;77.90
42097;DHT22;27754;45.414;11.084;2022-09-03T03:33:14;19.50;78.30
42097;DHT22;27754;45.414;11.084;2022-09-03T03:35:41;19.50;78.50
42097;DHT22;27754;45.414;11.084;2022-09-03T03:38:08;19.50;78.30
42097;DHT22;27754;45.414;11.084;2022-09-03T03:40:37;19.40;78.40
42097;DHT22;27754;45.414;11.084;2022-09-03T03:43:04;19.40;78.80
42097;DHT22;27754;45.414;11.084;2022-09-03T03:45:31;19.40;79.00
42097;DHT22;27754;45.414;11.084;2022-09-03T03:47:58;19.40;79.00
42097;DHT22;27754;45.414;11.084;2022-09-03T03:50:25;19.40;78.90
42097;DHT22;27754;45.414;11.084;2022-09-03T03:52:53;19.50;79.10
42097;DHT22;27754;45.414;11.084;2022-09-03T03:55:20;19.40;78.70
42097;DHT22;27754;45.414;11.084;2022-09-03T03:57:47;19.40;78.60
42097;DHT22;27754;45.414;11.084;2022-09-03T04:00:14;19.30;79.60
42097;DHT22;27754;45.414;11.084;2022-09-03T04:02:41;19.30;79.70
42097;DHT22;27754;45.414;11.084;2022-09-03T04:05:09;19.30;79.40
42097;DHT22;27754;45.414;11.084;2022-09-03T04:07:37;19.30;78.70
42097;DHT22;27754;45.414;11.084;2022-09-03T04:10:04;19.40;78.70
42097;DHT22;27754;45.414;11.084;2022-09-03T04:12:31;19.30;78.60
42097;DHT22;27754;45.414;11.084;2022-09-03T04:14:58;19.30;78.40
42097;DHT22;27754;45.414;11.084;2022-09-03T04:17:27;19.40;77.50
42097;DHT22;27754;45.414;11.084;2022-09-03T04:19:53;19.40;77.20
42097;DHT22;27754;45.414;11.084;2022-09-03T04:22:20;19.40;76.90
42097;DHT22;27754;45.414;11.084;2022-09-03T04:24:47;19.50;76.60
42097;DHT22;27754;45.414;11.084;2022-09-03T04:27:14;19.50;76.60
42097;DHT22;27754;45.414;11.084;2022-09-03T04:29:41;19.50;76.70
42097;DHT22;27754;45.414;11.084;2022-09-03T04:32:08;19.60;77.20
42097;DHT22;27754;45.414;11.084;2022-09-03T04:34:54;19.60;77.50
42097;DHT22;27754;45.414;11.084;2022-09-03T04:37:21;19.50;78.50
42097;DHT22;27754;45.414;11.084;2022-09-03T04:39:48;19.50;79.00
42097;DHT22;27754;45.414;11.084;2022-09-03T04:42:15;19.40;79.30
42097;DHT22;27754;45.414;11.084;2022-09-03T04:44:42;19.40;79.60
42097;DHT22;27754;45.414;11.084;2022-09-03T04:47:09;19.40;79.00
42097;DHT22;27754;45.414;11.084;2022-09-03T04:49:36;19.40;78.70
42097;DHT22;27754;45.414;11.084;2022-09-03T04:52:03;19.50;79.10
42097;DHT22;27754;45.414;11.084;2022-09-03T04:54:30;19.50;79.10
42097;DHT22;27754;45.414;11.084;2022-09-03T04:56:57;19.40;79.40
42097;DHT22;27754;45.414;11.084;2022-09-03T04:59:24;19.40;79.40
42097;DHT22;27754;45.414;11.084;2022-09-03T05:01:51;19.40;79.40
42097;DHT22;27754;45.414;11.084;2022-09-03T05:04:18;19.50;79.70
42097;DHT22;27754;45.414;11.084;2022-09-03T05:06:45;19.60;79.60
42097;DHT22;27754;45.414;11.084;2022-09-03T05:09:12;19.60;79.50
42097;DHT22;27754;45.414;11.084;2022-09-03T05:11:39;19.70;78.90
42097;DHT22;27754;45.414;11.084;2022-09-03T05:14:06;19.80;78.80
42097;DHT22;27754;45.414;11.084;2022-09-03T05:16:37;19.80;78.30
42097;DHT22;27754;45.414;11.084;2022-09-03T05:19:04;19.80;78.30
42097;DHT22;27754;45.414;11.084;2022-09-03T05:21:31;19.90;78.60
42097;DHT22;27754;45.414;11.084;2022-09-03T05:23:59;19.80;79.60
42097;DHT22;27754;45.414;11.084;2022-09-03T05:26:29;19.90;78.70
42097;DHT22;27754;45.414;11.084;2022-09-03T05:29:01;20.00;78.40
42097;DHT22;27754;45.414;11.084;2022-09-03T05:31:31;20.10;79.10
42097;DHT22;27754;45.414;11.084;2022-09-03T05:34:01;20.10;78.80
42097;DHT22;27754;45.414;11.084;2022-09-03T05:36:31;20.20;79.00
42097;DHT22;27754;45.414;11.084;2022-09-03T05:38:59;20.40;78.90
42097;DHT22;27754;45.414;11.084;2022-09-03T05:41:27;20.40;77.70
42097;DHT22;27754;45.414;11.084;2022-09-03T05:43:55;20.40;76.70
42097;DHT22;27754;45.414;11.084;2022-09-03T05:46:27;20.50;75.60
42097;DHT22;27754;45.414;11.084;2022-09-03T05:49:02;20.60;73.80
42097;DHT22;27754;45.414;11.084;2022-09-03T05:51:31;20.70;73.30
42097;DHT22;27754;45.414;11.084;2022-09-03T05:53:59;20.80;73.80
42097;DHT22;27754;45.414;11.084;2022-09-03T05:56:27;20.90;75.60
42097;DHT22;27754;45.414;11.084;2022-09-03T05:59:00;20.90;76.40
42097;DHT22;27754;45.414;11.084;2022-09-03T06:01:37;20.90;74.80
42097;DHT22;27754;45.414;11.084;2022-09-03T06:04:10;20.80;74.40
42097;DHT22;27754;45.414;11.084;2022-09-03T06:06:39;20.90;74.00
42097;DHT22;27754;45.414;11.084;2022-09-03T06:09:11;20.90;73.40
42097;DHT22;27754;45.414;11.084;2022-09-03T06:11:40;21.00;72.20
42097;DHT22;27754;45.414;11.084;2022-09-03T06:14:10;21.00;71.80
42097;DHT22;27754;45.414;11.084;2022-09-03T06:16:40;21.00;72.90
42097;DHT22;27754;45.414;11.084;2022-09-03T06:19:08;21.00;72.80
42097;DHT22;27754;45.414;11.084;2022-09-03T06:21:37;21.10;71.80
42097;DHT22;27754;45.414;11.084;2022-09-03T06:24:10;21.10;71.10
42097;DHT22;27754;45.414;11.084;2022-09-03T06:26:38;21.30;70.60
42097;DHT22;27754;45.414;11.084;2022-09-03T06:29:09;21.80;69.90
42097;DHT22;27754;45.414;11.084;2022-09-03T06:31:37;22.20;68.30
42097;DHT22;27754;45.414;11.084;2022-09-03T06:34:05;22.50;67.00
42097;DHT22;27754;45.414;11.084;2022-09-03T06:36:32;22.80;66.40
42097;DHT22;27754;45.414;11.084;2022-09-03T06:38:59;23.00;65.60
42097;DHT22;27754;45.414;11.084;2022-09-03T06:41:29;23.30;64.60
42097;DHT22;27754;45.414;11.084;2022-09-03T06:44:03;23.60;64.40
42097;DHT22;27754;45.414;11.084;2022-09-03T06:46:33;23.70;64.70
42097;DHT22;27754;45.414;11.084;2022-09-03T06:49:01;23.90;64.10
42097;DHT22;27754;45.414;11.084;2022-09-03T06:51:30;24.10;63.70
42097;DHT22;27754;45.414;11.084;2022-09-03T06:54:05;24.30;63.00
42097;DHT22;27754;45.414;11.084;2022-09-03T06:56:34;24.60;61.90
42097;DHT22;27754;45.414;11.084;2022-09-03T06:59:10;24.70;62.70
42097;DHT22;27754;45.414;11.084;2022-09-03T07:01:38;24.70;61.90
42097;DHT22;27754;45.414;11.084;2022-09-03T07:04:12;24.90;61.50
42097;DHT22;27754;45.414;11.084;2022-09-03T07:06:40;24.90;61.80
42097;DHT22;27754;45.414;11.084;2022-09-03T07:09:10;25.10;61.10
42097;DHT22;27754;45.414;11.084;2022-09-03T07:11:38;25.40;59.80
42097;DHT22;27754;45.414;11.084;2022-09-03T07:14:14;25.60;59.50
42097;DHT22;27754;45.414;11.084;2022-09-03T07:16:41;25.60;59.20
42097;DHT22;27754;45.414;11.084;2022-09-03T07:19:09;25.80;59.40
42097;DHT22;27754;45.414;11.084;2022-09-03T07:21:39;25.40;59.00
42097;DHT22;27754;45.414;11.084;2022-09-03T07:24:15;25.60;58.10
42097;DHT22;27754;45.414;11.084;2022-09-03T07:26:44;25.30;58.30
42097;DHT22;27754;45.414;11.084;2022-09-03T07:29:12;25.20;58.50
42097;DHT22;27754;45.414;11.084;2022-09-03T07:31:42;25.40;58.90
42097;DHT22;27754;45.414;11.084;2022-09-03T07:34:11;25.30;59.90
42097;DHT22;27754;45.414;11.084;2022-09-03T07:36:43;25.30;58.20
42097;DHT22;27754;45.414;11.084;2022-09-03T07:39:15;24.90;58.50
42097;DHT22;27754;45.414;11.084;2022-09-03T07:41:44;25.10;58.40
42097;DHT22;27754;45.414;11.084;2022-09-03T07:44:15;25.10;57.90
42097;DHT22;27754;45.414;11.084;2022-09-03T07:46:45;25.00;58.40
42097;DHT22;27754;45.414;11.084;2022-09-03T07:49:14;24.90;58.20
42097;DHT22;27754;45.414;11.084;2022-09-03T07:51:41;25.10;57.50
42097;DHT22;27754;45.414;11.084;2022-09-03T07:54:09;24.80;58.80
42097;DHT22;27754;45.414;11.084;2022-09-03T07:56:39;24.80;59.00
42097;DHT22;27754;45.414;11.084;2022-09-03T07:59:07;24.90;58.20
42097;DHT22;27754;45.414;11.084;2022-09-03T08:01:35;24.80;58.30
42097;DHT22;27754;45.414;11.084;2022-09-03T08:04:07;24.80;58.70
42097;DHT22;27754;45.414;11.084;2022-09-03T08:06:36;24.90;59.10
42097;DHT22;27754;45.414;11.084;2022-09-03T08:09:06;25.10;58.30
42097;DHT22;27754;45.414;11.084;2022-09-03T08:11:37;25.60;57.60
42097;DHT22;27754;45.414;11.084;2022-09-03T08:14:07;25.90;55.60
42097;DHT22;27754;45.414;11.084;2022-09-03T08:16:40;25.80;55.20
42097;DHT22;27754;45.414;11.084;2022-09-03T08:19:09;25.90;55.20
42097;DHT22;27754;45.414;11.084;2022-09-03T08:21:39;26.00;56.20
42097;DHT22;27754;45.414;11.084;2022-09-03T08:24:10;26.30;54.70
42097;DHT22;27754;45.414;11.084;2022-09-03T08:26:39;26.70;53.90
42097;DHT22;27754;45.414;11.084;2022-09-03T08:29:13;26.60;54.40
42097;DHT22;27754;45.414;11.084;2022-09-03T08:31:40;26.60;53.10
42097;DHT22;27754;45.414;11.084;2022-09-03T08:34:07;26.80;53.60
42097;DHT22;27754;45.414;11.084;2022-09-03T08:36:37;27.00;51.50
42097;DHT22;27754;45.414;11.084;2022-09-03T08:39:06;26.80;52.40
42097;DHT22;27754;45.414;11.084;2022-09-03T08:47:17;26.40;53.20
42097;DHT22;27754;45.414;11.084;2022-09-03T08:56:06;26.60;53.00
42097;DHT22;27754;45.414;11.084;2022-09-03T08:58:34;26.60;52.90
42097;DHT22;27754;45.414;11.084;2022-09-03T09:06:50;26.70;51.80
42097;DHT22;27754;45.414;11.084;2022-09-03T09:10:02;26.70;52.90
42097;DHT22;27754;45.414;11.084;2022-09-03T09:12:34;26.60;53.90
42097;DHT22;27754;45.414;11.084;2022-09-03T09:20:48;26.10;54.50
42097;DHT22;27754;45.414;11.084;2022-09-03T09:23:29;26.00;55.40
42097;DHT22;27754;45.414;11.084;2022-09-03T09:25:59;26.00;55.00
42097;DHT22;27754;45.414;11.084;2022-09-03T09:28:34;26.10;54.60
42097;DHT22;27754;45.414;11.084;2022-09-03T09:31:03;26.10;55.90
42097;DHT22;27754;45.414;11.084;2022-09-03T09:33:31;26.50;55.00
42097;DHT22;27754;45.414;11.084;2022-09-03T09:36:07;26.30;54.60
42097;DHT22;27754;45.414;11.084;2022-09-03T09:38:38;26.40;54.70
42097;DHT22;27754;45.414;11.084;2022-09-03T09:41:18;26.30;55.40
42097;DHT22;27754;45.414;11.084;2022-09-03T09:43:46;26.30;57.20
42097;DHT22;27754;45.414;11.084;2022-09-03T09:46:22;26.60;56.90
42097;DHT22;27754;45.414;11.084;2022-09-03T09:48:56;26.20;58.30
42097;DHT22;27754;45.414;11.084;2022-09-03T09:51:28;26.30;58.10
42097;DHT22;27754;45.414;11.084;2022-09-03T09:56:38;26.50;57.80
42097;DHT22;27754;45.414;11.084;2022-09-03T09:59:07;26.70;56.60
42097;DHT22;27754;45.414;11.084;2022-09-03T10:01:40;26.60;55.90
42097;DHT22;27754;45.414;11.084;2022-09-03T10:04:12;26.90;55.80
42097;DHT22;27754;45.414;11.084;2022-09-03T10:06:42;27.20;54.40
42097;DHT22;27754;45.414;11.084;2022-09-03T10:09:27;27.10;54.20
42097;DHT22;27754;45.414;11.084;2022-09-03T10:15:24;27.30;53.60
42097;DHT22;27754;45.414;11.084;2022-09-03T10:17:47;27.10;53.70
42097;DHT22;27754;45.414;11.084;2022-09-03T10:20:40;26.80;54.20
42097;DHT22;27754;45.414;11.084;2022-09-03T10:23:24;26.80;54.50
42097;DHT22;27754;45.414;11.084;2022-09-03T10:26:13;26.80;54.50
42097;DHT22;27754;45.414;11.084;2022-09-03T10:28:45;27.10;53.50
42097;DHT22;27754;45.414;11.084;2022-09-03T10:34:45;26.70;53.70
42097;DHT22;27754;45.414;11.084;2022-09-03T10:37:37;26.80;55.80
42097;DHT22;27754;45.414;11.084;2022-09-03T10:40:10;26.80;55.30
42097;DHT22;27754;45.414;11.084;2022-09-03T10:42:54;27.00;55.00
42097;DHT22;27754;45.414;11.084;2022-09-03T10:48:21;27.40;54.20
42097;DHT22;27754;45.414;11.084;2022-09-03T10:51:04;27.20;54.10
42097;DHT22;27754;45.414;11.084;2022-09-03T10:54:03;26.80;55.90
42097;DHT22;27754;45.414;11.084;2022-09-03T10:59:29;27.00;56.80
42097;DHT22;27754;45.414;11.084;2022-09-03T11:02:58;27.00;56.30
42097;DHT22;27754;45.414;11.084;2022-09-03T11:08:08;26.80;56.20
42097;DHT22;27754;45.414;11.084;2022-09-03T11:10:44;27.30;55.40
42097;DHT22;27754;45.414;11.084;2022-09-03T11:15:49;27.80;54.10
42097;DHT22;27754;45.414;11.084;2022-09-03T11:18:43;27.70;53.30
42097;DHT22;27754;45.414;11.084;2022-09-03T11:21:13;27.20;53.90
42097;DHT22;27754;45.414;11.084;2022-09-03T11:23:43;26.90;53.80
42097;DHT22;27754;45.414;11.084;2022-09-03T11:26:17;27.10;53.70
42097;DHT22;27754;45.414;11.084;2022-09-03T11:31:45;26.80;52.90
42097;DHT22;27754;45.414;11.084;2022-09-03T11:34:14;26.90;55.30
42097;DHT22;27754;45.414;11.084;2022-09-03T11:36:49;27.00;53.70
42097;DHT22;27754;45.414;11.084;2022-09-03T11:39:23;27.10;55.60
42097;DHT22;27754;45.414;11.084;2022-09-03T11:42:04;27.30;55.10
42097;DHT22;27754;45.414;11.084;2022-09-03T11:50:29;27.80;53.40
42097;DHT22;27754;45.414;11.084;2022-09-03T11:53:08;27.70;53.20
42097;DHT22;27754;45.414;11.084;2022-09-03T11:55:59;28.10;53.40
42097;DHT22;27754;45.414;11.084;2022-09-03T11:58:35;28.10;52.90
42097;DHT22;27754;45.414;11.084;2022-09-03T12:01:09;28.30;52.70
42097;DHT22;27754;45.414;11.084;2022-09-03T12:03:45;28.50;53.50
42097;DHT22;27754;45.414;11.084;2022-09-03T12:14:31;27.90;54.80
42097;DHT22;27754;45.414;11.084;2022-09-03T12:17:21;28.30;54.60
42097;DHT22;27754;45.414;11.084;2022-09-03T12:19:54;28.50;54.60
42097;DHT22;27754;45.414;11.084;2022-09-03T12:22:25;27.90;53.60
42097;DHT22;27754;45.414;11.084;2022-09-03T12:24:54;27.50;54.10
42097;DHT22;27754;45.414;11.084;2022-09-03T12:27:24;27.70;53.40
42097;DHT22;27754;45.414;11.084;2022-09-03T12:29:58;27.80;54.20
42097;DHT22;27754;45.414;11.084;2022-09-03T12:32:29;28.10;53.90
42097;DHT22;27754;45.414;11.084;2022-09-03T12:35:13;28.20;53.20
42097;DHT22;27754;45.414;11.084;2022-09-03T12:38:01;28.20;53.30
42097;DHT22;27754;45.414;11.084;2022-09-03T12:40:33;27.80;54.10
42097;DHT22;27754;45.414;11.084;2022-09-03T12:43:26;27.80;54.50
42097;DHT22;27754;45.414;11.084;2022-09-03T12:46:14;28.20;53.80
42097;DHT22;27754;45.414;11.084;2022-09-03T12:48:53;28.30;54.20
42097;DHT22;27754;45.414;11.084;2022-09-03T12:51:42;28.20;53.80
42097;DHT22;27754;45.414;11.084;2022-09-03T12:54:21;28.50;53.80
42097;DHT22;27754;45.414;11.084;2022-09-03T12:56:55;28.80;53.00
42097;DHT22;27754;45.414;11.084;2022-09-03T12:59:25;28.70;53.50
42097;DHT22;27754;45.414;11.084;2022-09-03T13:01:57;28.70;53.50
42097;DHT22;27754;45.414;11.084;2022-09-03T13:04:28;28.30;54.60
42097;DHT22;27754;45.414;11.084;2022-09-03T13:06:59;28.10;54.70
42097;DHT22;27754;45.414;11.084;2022-09-03T13:09:32;27.90;55.30
42097;DHT22;27754;45.414;11.084;2022-09-03T13:11:59;27.90;55.00
42097;DHT22;27754;45.414;11.084;2022-09-03T13:14:45;28.10;54.50
42097;DHT22;27754;45.414;11.084;2022-09-03T13:23:09;27.80;54.20
42097;DHT22;27754;45.414;11.084;2022-09-03T13:26:07;28.30;53.70
42097;DHT22;27754;45.414;11.084;2022-09-03T13:31:40;28.00;53.90
42097;DHT22;27754;45.414;11.084;2022-09-03T13:34:23;28.40;53.50
42097;DHT22;27754;45.414;11.084;2022-09-03T13:37:14;28.60;52.80
42097;DHT22;27754;45.414;11.084;2022-09-03T13:39:57;28.80;52.80
42097;DHT22;27754;45.414;11.084;2022-09-03T13:44:58;28.50;53.30
42097;DHT22;27754;45.414;11.084;2022-09-03T13:47:39;28.30;53.00
42097;DHT22;27754;45.414;11.084;2022-09-03T13:51:22;28.10;53.90
42097;DHT22;27754;45.414;11.084;2022-09-03T13:53:45;28.40;53.30
42097;DHT22;27754;45.414;11.084;2022-09-03T13:56:50;28.50;52.60
42097;DHT22;27754;45.414;11.084;2022-09-03T13:59:49;28.60;52.90
42097;DHT22;27754;45.414;11.084;2022-09-03T14:02:36;29.00;52.60
42097;DHT22;27754;45.414;11.084;2022-09-03T14:05:37;28.80;52.40
42097;DHT22;27754;45.414;11.084;2022-09-03T14:08:32;28.90;53.20
42097;DHT22;27754;45.414;11.084;2022-09-03T14:11:25;29.20;53.10
42097;DHT22;27754;45.414;11.084;2022-09-03T14:14:15;29.10;53.60
42097;DHT22;27754;45.414;11.084;2022-09-03T14:20:01;28.90;54.70
42097;DHT22;27754;45.414;11.084;2022-09-03T14:25:25;28.40;55.00
42097;DHT22;27754;45.414;11.084;2022-09-03T14:27:54;28.40;55.60
42097;DHT22;27754;45.414;11.084;2022-09-03T14:30:33;28.20;56.20
42097;DHT22;27754;45.414;11.084;2022-09-03T14:35:55;28.30;56.70
42097;DHT22;27754;45.414;11.084;2022-09-03T14:58:48;28.10;59.10
42097;DHT22;27754;45.414;11.084;2022-09-03T15:01:10;28.00;58.80
42097;DHT22;27754;45.414;11.084;2022-09-03T15:06:46;27.90;58.90
42097;DHT22;27754;45.414;11.084;2022-09-03T15:12:20;28.00;59.20
42097;DHT22;27754;45.414;11.084;2022-09-03T15:14:53;28.20;59.00
42097;DHT22;27754;45.414;11.084;2022-09-03T15:17:54;28.20;58.70
42097;DHT22;27754;45.414;11.084;2022-09-03T15:20:47;28.10;58.60
42097;DHT22;27754;45.414;11.084;2022-09-03T15:35:09;28.10;57.90
42097;DHT22;27754;45.414;11.084;2022-09-03T15:37:51;27.80;59.00
42097;DHT22;27754;45.414;11.084;2022-09-03T15:43:03;27.80;59.70
42097;DHT22;27754;45.414;11.084;2022-09-03T15:48:12;27.70;59.80
42097;DHT22;27754;45.414;11.084;2022-09-03T15:51:21;27.50;60.10
42097;DHT22;27754;45.414;11.084;2022-09-03T15:59:41;27.30;61.00
42097;DHT22;27754;45.414;11.084;2022-09-03T16:02:32;27.30;60.90
42097;DHT22;27754;45.414;11.084;2022-09-03T16:05:09;27.20;60.90
42097;DHT22;27754;45.414;11.084;2022-09-03T16:11:14;27.10;61.00
42097;DHT22;27754;45.414;11.084;2022-09-03T16:14:05;27.10;61.10
42097;DHT22;27754;45.414;11.084;2022-09-03T16:16:55;27.00;61.20
42097;DHT22;27754;45.414;11.084;2022-09-03T16:25:26;26.90;61.50
42097;DHT22;27754;45.414;11.084;2022-09-03T16:33:31;26.80;61.60
42097;DHT22;27754;45.414;11.084;2022-09-03T16:36:25;26.80;61.70
42097;DHT22;27754;45.414;11.084;2022-09-03T16:50:04;27.10;61.10
42097;DHT22;27754;45.414;11.084;2022-09-03T16:55:42;26.80;61.50
42097;DHT22;27754;45.414;11.084;2022-09-03T17:01:10;26.80;61.70
42097;DHT22;27754;45.414;11.084;2022-09-03T17:09:29;26.50;62.80
42097;DHT22;27754;45.414;11.084;2022-09-03T17:20:41;26.30;63.70
42097;DHT22;27754;45.414;11.084;2022-09-03T17:26:09;25.90;64.60
42097;DHT22;27754;45.414;11.084;2022-09-03T17:37:51;25.60;65.80
42097;DHT22;27754;45.414;11.084;2022-09-03T17:48:51;25.30;66.90
42097;DHT22;27754;45.414;11.084;2022-09-03T17:51:41;25.20;67.50
42097;DHT22;27754;45.414;11.084;2022-09-03T17:54:36;25.20;67.60
42097;DHT22;27754;45.414;11.084;2022-09-03T17:57:10;25.10;67.90
42097;DHT22;27754;45.414;11.084;2022-09-03T18:00:01;25.00;68.10
42097;DHT22;27754;45.414;11.084;2022-09-03T18:10:50;24.80;69.10
42097;DHT22;27754;45.414;11.084;2022-09-03T18:21:46;24.60;70.20
42097;DHT22;27754;45.414;11.084;2022-09-03T18:27:32;24.60;70.40
42097;DHT22;27754;45.414;11.084;2022-09-03T18:30:20;24.60;70.60
42097;DHT22;27754;45.414;11.084;2022-09-03T18:33:05;24.40;70.70
42097;DHT22;27754;45.414;11.084;2022-09-03T18:35:51;24.50;70.70
42097;DHT22;27754;45.414;11.084;2022-09-03T18:38:37;24.40;71.10
42097;DHT22;27754;45.414;11.084;2022-09-03T18:41:38;24.30;71.20
42097;DHT22;27754;45.414;11.084;2022-09-03T18:44:41;24.30;71.30
42097;DHT22;27754;45.414;11.084;2022-09-03T18:48:48;24.30;71.50
42097;DHT22;27754;45.414;11.084;2022-09-03T18:57:22;24.20;71.70
42097;DHT22;27754;45.414;11.084;2022-09-03T19:00:11;24.10;72.00
42097;DHT22;27754;45.414;11.084;2022-09-03T19:06:14;24.00;72.20
42097;DHT22;27754;45.414;11.084;2022-09-03T19:15:39;24.00;72.30
42097;DHT22;27754;45.414;11.084;2022-09-03T19:18:53;24.00;72.20
42097;DHT22;27754;45.414;11.084;2022-09-03T19:21:47;23.90;72.60
42097;DHT22;27754;45.414;11.084;2022-09-03T19:24:32;23.80;72.90
42097;DHT22;27754;45.414;11.084;2022-09-03T19:27:46;23.80;72.90
42097;DHT22;27754;45.414;11.084;2022-09-03T19:33:58;23.80;73.50
42097;DHT22;27754;45.414;11.084;2022-09-03T19:46:31;23.40;74.30
42097;DHT22;27754;45.414;11.084;2022-09-03T19:52:58;23.40;74.70
42097;DHT22;27754;45.414;11.084;2022-09-03T19:55:48;23.30;74.60
42097;DHT22;27754;45.414;11.084;2022-09-03T19:58:48;23.30;74.80
42097;DHT22;27754;45.414;11.084;2022-09-03T20:01:37;23.30;74.80
42097;DHT22;27754;45.414;11.084;2022-09-03T20:04:38;23.30;75.00
42097;DHT22;27754;45.414;11.084;2022-09-03T20:07:24;23.20;75.00
42097;DHT22;27754;45.414;11.084;2022-09-03T20:10:12;23.10;75.20
42097;DHT22;27754;45.414;11.084;2022-09-03T20:13:04;23.20;75.00
42097;DHT22;27754;45.414;11.084;2022-09-03T20:29:49;23.10;75.20
42097;DHT22;27754;45.414;11.084;2022-09-03T20:37:53;23.00;75.50
42097;DHT22;27754;45.414;11.084;2022-09-03T20:43:22;22.90;76.20
42097;DHT22;27754;45.414;11.084;2022-09-03T20:46:04;22.90;76.20
42097;DHT22;27754;45.414;11.084;2022-09-03T20:51:23;22.80;76.90
42097;DHT22;27754;45.414;11.084;2022-09-03T20:54:02;22.60;76.70
42097;DHT22;27754;45.414;11.084;2022-09-03T20:56:54;22.60;77.10
42097;DHT22;27754;45.414;11.084;2022-09-03T20:59:51;22.50;77.30
42097;DHT22;27754;45.414;11.084;2022-09-03T21:02:41;22.40;77.50
42097;DHT22;27754;45.414;11.084;2022-09-03T21:05:21;22.50;77.30
42097;DHT22;27754;45.414;11.084;2022-09-03T21:24:31;22.50;77.50
42097;DHT22;27754;45.414;11.084;2022-09-03T21:27:08;22.50;77.50
42097;DHT22;27754;45.414;11.084;2022-09-03T21:29:42;22.50;77.60
42097;DHT22;27754;45.414;11.084;2022-09-03T21:32:22;22.50;77.60
42097;DHT22;27754;45.414;11.084;2022-09-03T21:35:20;22.50;77.50
42097;DHT22;27754;45.414;11.084;2022-09-03T21:38:12;22.60;77.50
42097;DHT22;27754;45.414;11.084;2022-09-03T21:43:30;22.50;77.60
42097;DHT22;27754;45.414;11.084;2022-09-03T21:46:06;22.50;77.90
42097;DHT22;27754;45.414;11.084;2022-09-03T21:51:21;22.50;78.10
42097;DHT22;27754;45.414;11.084;2022-09-03T21:54:05;22.40;78.30